Time;durP1;ratioP1;P1;durP2;ratioP2;P2;SDS_P1;SDS_P2;PMS_P1;PMS_P2;Temp;Humidity;BMP_temperature;BMP_pressure;BME280_temperature;BME280_humidity;BME280_pressure;Samples;Min_cycle;Max_cycle;Signal;HPM_P1;HPM_P2
2023/01/19 00:00:35;;;;;;;0.25;0.25;;;15.50;57.80;;;;;;5061926;28;20021;-64
2023/01/19 00:03:04;;;;;;;0.57;0.43;;;15.50;57.90;;;;;;5061943;28;20272;-64
2023/01/19 00:05:29;;;;;;;0.52;0.52;;;15.40;57.90;;;;;;5061779;28;20055;-65
2023/01/19 00:07:55;;;;;;;0.60;0.47;;;15.40;57.90;;;;;;5061950;28;20036;-64
2023/01/19 00:10:21;;;;;;;0.57;0.35;;;15.40;58.00;;;;;;5061921;28;20052;-64
2023/01/19 00:12:47;;;;;;;0.38;0.38;;;15.40;58.00;;;;;;5061744;28;20013;-65
2023/01/19 00:15:13;;;;;;;0.32;0.30;;;15.30;58.00;;;;;;5061738;28;20074;-65
2023/01/19 00:17:39;;;;;;;1.15;0.60;;;15.30;58.10;;;;;;5061532;28;20071;-64
2023/01/19 00:20:08;;;;;;;0.55;0.45;;;15.30;58.20;;;;;;5061638;28;20172;-64
2023/01/19 00:22:33;;;;;;;0.55;0.55;;;15.30;58.20;;;;;;5061485;28;20013;-64
2023/01/19 00:24:59;;;;;;;0.50;0.50;;;15.30;58.20;;;;;;5061535;28;20322;-64
2023/01/19 00:27:25;;;;;;;0.57;0.52;;;15.30;58.20;;;;;;5060765;28;20111;-64
2023/01/19 00:29:51;;;;;;;0.60;0.50;;;15.20;58.20;;;;;;5061474;28;20032;-65
2023/01/19 00:32:18;;;;;;;0.60;0.40;;;15.20;58.20;;;;;;5061315;28;20032;-64
2023/01/19 00:34:48;;;;;;;0.60;0.60;;;15.20;58.20;;;;;;5061350;28;20013;-65
2023/01/19 00:37:15;;;;;;;0.43;0.43;;;15.20;58.20;;;;;;5061165;28;20029;-65
2023/01/19 00:39:42;;;;;;;0.30;0.30;;;15.20;58.20;;;;;;5061181;28;20020;-64
2023/01/19 00:44:56;;;;;;;0.75;0.57;;;15.30;58.40;;;;;;5061100;28;20024;-64
2023/01/19 00:47:21;;;;;;;0.57;0.45;;;15.40;58.50;;;;;;5061050;28;20028;-64
2023/01/19 00:49:47;;;;;;;0.50;0.40;;;15.50;58.30;;;;;;5076319;28;20039;-65
2023/01/19 00:52:13;;;;;;;0.38;0.35;;;15.60;58.20;;;;;;5060919;28;20039;-64
2023/01/19 00:54:39;;;;;;;0.40;0.40;;;15.60;58.00;;;;;;5060886;28;20029;-64
2023/01/19 00:57:05;;;;;;;0.30;0.30;;;15.80;57.90;;;;;;5060835;28;20029;-64
2023/01/19 00:59:31;;;;;;;0.57;0.57;;;15.80;57.70;;;;;;5060833;28;20025;-64
2023/01/19 01:01:57;;;;;;;0.28;0.28;;;15.80;57.50;;;;;;5060761;28;20021;-64
2023/01/19 01:04:23;;;;;;;0.65;0.65;;;15.90;57.40;;;;;;5060736;28;20213;-64
2023/01/19 01:06:49;;;;;;;0.93;0.73;;;15.90;57.40;;;;;;5060668;28;20072;-65
2023/01/19 01:09:14;;;;;;;0.32;0.32;;;15.80;57.30;;;;;;5060959;28;20040;-66
2023/01/19 01:11:41;;;;;;;0.60;0.60;;;15.70;57.40;;;;;;5060858;28;20582;-64
2023/01/19 01:14:09;;;;;;;0.40;0.40;;;15.60;57.50;;;;;;5060672;28;20286;-65
2023/01/19 01:16:35;;;;;;;0.50;0.50;;;15.60;57.60;;;;;;5060599;28;20025;-64
2023/01/19 01:19:01;;;;;;;0.57;0.57;;;15.60;57.90;;;;;;5060638;28;20070;-65
2023/01/19 01:21:27;;;;;;;0.45;0.45;;;15.60;57.80;;;;;;5060592;28;20056;-65
2023/01/19 01:23:52;;;;;;;0.45;0.45;;;15.50;57.80;;;;;;5060580;28;20416;-65
2023/01/19 01:26:18;;;;;;;0.50;0.50;;;15.50;57.90;;;;;;5060455;28;20084;-64
2023/01/19 01:28:44;;;;;;;1.15;0.60;;;15.50;57.90;;;;;;5060493;28;20088;-64
2023/01/19 01:31:10;;;;;;;0.38;0.38;;;15.40;57.90;;;;;;5060357;28;20352;-66
2023/01/19 01:33:36;;;;;;;0.50;0.50;;;15.40;58.00;;;;;;5060322;28;20029;-65
2023/01/19 01:36:02;;;;;;;0.25;0.25;;;15.40;58.00;;;;;;5060313;28;20033;-66
2023/01/19 01:38:27;;;;;;;0.32;0.32;;;15.30;58.10;;;;;;5060116;28;20024;-64
2023/01/19 01:40:53;;;;;;;0.45;0.22;;;15.30;58.10;;;;;;5060273;28;20035;-64
2023/01/19 01:43:19;;;;;;;0.30;0.30;;;15.30;58.10;;;;;;5060294;28;20017;-64
2023/01/19 01:45:46;;;;;;;0.40;0.40;;;15.30;58.10;;;;;;5060202;28;20029;-64
2023/01/19 01:48:13;;;;;;;0.52;0.30;;;15.30;58.20;;;;;;5060272;28;20043;-64
2023/01/19 01:53:37;;;;;;;0.40;0.40;;;15.20;58.00;;;;;;5060391;28;20024;-64
2023/01/19 01:56:08;;;;;;;1.40;0.60;;;15.20;58.10;;;;;;5060222;28;20025;-64
2023/01/19 01:58:36;;;;;;;0.30;0.30;;;15.20;58.20;;;;;;5060125;28;20029;-64
2023/01/19 02:06:14;;;;;;;0.60;0.40;;;15.40;58.30;;;;;;5059802;28;20057;-65
2023/01/19 02:14:38;;;;;;;0.50;0.50;;;15.70;57.80;;;;;;5059983;28;20124;-64
2023/01/19 02:17:04;;;;;;;0.30;0.28;;;15.80;57.60;;;;;;5059926;28;20033;-65
2023/01/19 02:19:39;;;;;;;0.30;0.30;;;15.80;57.30;;;;;;5059915;28;20045;-65
2023/01/19 02:22:34;;;;;;;0.30;0.30;;;15.80;57.30;;;;;;5059983;28;20020;-64
2023/01/19 02:25:02;;;;;;;0.40;0.40;;;15.70;57.20;;;;;;5059851;28;20198;-65
2023/01/19 02:27:28;;;;;;;0.30;0.30;;;15.60;57.30;;;;;;5059829;28;20229;-66
2023/01/19 02:29:54;;;;;;;0.75;0.30;;;15.60;57.40;;;;;;5059920;28;20029;-66
2023/01/19 02:32:20;;;;;;;0.43;0.40;;;15.50;57.50;;;;;;5060036;28;20393;-65
2023/01/19 02:34:46;;;;;;;0.50;0.40;;;15.50;57.60;;;;;;5059997;28;20057;-65
2023/01/19 02:37:15;;;;;;;0.40;0.40;;;15.50;57.60;;;;;;5059881;28;20347;-65
2023/01/19 02:40:00;;;;;;;0.60;0.40;;;15.40;57.70;;;;;;5059845;28;20033;-65
2023/01/19 02:42:31;;;;;;;0.40;0.40;;;15.40;57.90;;;;;;5059769;28;20040;-64
2023/01/19 02:44:57;;;;;;;0.20;0.20;;;15.30;57.90;;;;;;5059723;28;20028;-64
2023/01/19 02:47:23;;;;;;;0.57;0.43;;;15.30;58.00;;;;;;5059745;28;20024;-64
2023/01/19 02:49:57;;;;;;;0.30;0.30;;;15.30;58.10;;;;;;5059653;28;20033;-63
2023/01/19 02:52:24;;;;;;;0.38;0.32;;;15.30;58.20;;;;;;5063105;28;20025;-64
2023/01/19 02:54:56;;;;;;;0.43;0.40;;;15.30;58.10;;;;;;5063216;28;20073;-66
2023/01/19 02:57:56;;;;;;;0.30;0.30;;;15.30;58.20;;;;;;5063169;28;20029;-65
2023/01/19 03:00:38;;;;;;;0.30;0.30;;;15.20;58.10;;;;;;5063104;28;20032;-66
2023/01/19 03:03:21;;;;;;;0.30;0.30;;;15.30;58.10;;;;;;5063041;28;20088;-64
2023/01/19 03:06:17;;;;;;;0.40;0.40;;;15.20;58.10;;;;;;5062695;28;20053;-64
2023/01/19 03:09:00;;;;;;;0.88;0.45;;;15.20;58.00;;;;;;5062547;28;20037;-65
2023/01/19 03:11:32;;;;;;;0.55;0.40;;;15.20;58.10;;;;;;5062890;28;20336;-65
2023/01/19 03:14:05;;;;;;;0.40;0.40;;;15.20;58.10;;;;;;5062747;28;20206;-64
2023/01/19 03:16:54;;;;;;;0.30;0.30;;;15.20;58.10;;;;;;5078092;28;20033;-64
2023/01/19 03:19:32;;;;;;;0.40;0.40;;;15.20;58.20;;;;;;5062708;28;20078;-64
2023/01/19 03:22:09;;;;;;;0.32;0.30;;;15.20;58.10;;;;;;5062755;28;20331;-63
2023/01/19 03:24:39;;;;;;;0.63;0.50;;;15.20;58.10;;;;;;5062701;28;20329;-64
2023/01/19 03:27:14;;;;;;;0.20;0.20;;;15.30;58.30;;;;;;5062977;28;20332;-64
2023/01/19 03:29:45;;;;;;;0.95;0.40;;;15.40;58.30;;;;;;5062702;28;20032;-64
2023/01/19 03:32:15;;;;;;;0.20;0.20;;;15.40;58.20;;;;;;5062684;28;20024;-65
2023/01/19 03:34:42;;;;;;;0.45;0.43;;;15.50;58.50;;;;;;5062494;28;20028;-65
2023/01/19 03:37:10;;;;;;;0.68;0.50;;;15.60;57.80;;;;;;5062309;28;20029;-65
2023/01/19 03:39:36;;;;;;;0.50;0.30;;;15.60;57.50;;;;;;5062398;28;20032;-65
2023/01/19 03:42:06;;;;;;;1.50;0.30;;;15.70;57.40;;;;;;5062317;28;20067;-65
2023/01/19 03:44:36;;;;;;;0.30;0.30;;;15.70;57.30;;;;;;5062272;28;20029;-64
2023/01/19 03:47:03;;;;;;;0.30;0.30;;;15.60;57.40;;;;;;5060893;28;20029;-65
2023/01/19 03:49:33;;;;;;;0.30;0.30;;;15.60;57.40;;;;;;5062181;28;20044;-65
2023/01/19 03:51:59;;;;;;;0.30;0.30;;;15.50;57.50;;;;;;5061948;28;20352;-64
2023/01/19 03:54:26;;;;;;;0.30;0.30;;;15.50;57.60;;;;;;5062318;28;20119;-64
2023/01/19 03:56:52;;;;;;;0.45;0.45;;;15.40;57.70;;;;;;5061958;28;20321;-65
2023/01/19 03:59:18;;;;;;;0.40;0.32;;;15.40;57.80;;;;;;5062002;28;20044;-64
2023/01/19 04:01:45;;;;;;;0.52;0.40;;;15.40;57.80;;;;;;5061353;28;20116;-65
2023/01/19 04:04:12;;;;;;;0.52;0.45;;;15.30;57.90;;;;;;5061628;28;20395;-64
2023/01/19 04:06:38;;;;;;;0.30;0.30;;;15.30;57.80;;;;;;5061738;28;20044;-64
2023/01/19 04:09:04;;;;;;;0.30;0.30;;;15.30;58.00;;;;;;5061793;28;20013;-64
2023/01/19 04:11:30;;;;;;;0.30;0.30;;;15.20;58.10;;;;;;5061836;28;20139;-64
2023/01/19 04:13:56;;;;;;;0.43;0.20;;;15.20;58.00;;;;;;5061819;28;20031;-64
2023/01/19 04:16:22;;;;;;;0.30;0.30;;;15.10;58.10;;;;;;5061773;28;20028;-64
2023/01/19 04:18:49;;;;;;;0.65;0.50;;;15.10;58.00;;;;;;5061509;28;20035;-64
2023/01/19 04:21:15;;;;;;;0.50;0.50;;;15.10;58.10;;;;;;5061562;28;20063;-64
2023/01/19 04:23:43;;;;;;;0.43;0.43;;;15.10;58.20;;;;;;5061520;28;20391;-64
2023/01/19 04:26:09;;;;;;;0.15;0.15;;;15.10;58.30;;;;;;5060125;28;20031;-64
2023/01/19 04:28:38;;;;;;;0.50;0.50;;;15.10;58.20;;;;;;5061403;28;20067;-64
2023/01/19 04:31:05;;;;;;;0.32;0.32;;;15.10;58.40;;;;;;5061384;28;20035;-64
2023/01/19 04:33:31;;;;;;;0.68;0.43;;;15.10;58.40;;;;;;5061256;28;20036;-65
2023/01/19 04:35:57;;;;;;;0.35;0.30;;;15.10;58.40;;;;;;5061267;28;20600;-64
2023/01/19 04:38:24;;;;;;;0.20;0.20;;;15.10;58.50;;;;;;5076569;28;20028;-64
2023/01/19 04:40:51;;;;;;;0.52;0.35;;;15.10;58.40;;;;;;5059892;28;20024;-65
2023/01/19 04:43:21;;;;;;;0.28;0.22;;;15.10;58.40;;;;;;5061144;28;20020;-64
2023/01/19 04:45:47;;;;;;;0.40;0.40;;;15.20;58.50;;;;;;5061172;28;20025;-64
2023/01/19 04:48:14;;;;;;;0.30;0.30;;;15.30;58.50;;;;;;5061376;28;20316;-66
2023/01/19 04:50:40;;;;;;;0.82;0.38;;;15.30;58.40;;;;;;5061223;28;20317;-65
2023/01/19 04:53:07;;;;;;;0.50;0.50;;;15.40;58.30;;;;;;5061003;28;20107;-64
2023/01/19 04:55:33;;;;;;;0.20;0.20;;;15.50;58.10;;;;;;5061023;28;20375;-65
2023/01/19 04:57:59;;;;;;;0.38;0.30;;;15.60;57.80;;;;;;5060826;28;20024;-64
2023/01/19 05:00:25;;;;;;;0.30;0.30;;;15.60;57.80;;;;;;5060907;28;20020;-65
2023/01/19 05:02:52;;;;;;;0.50;0.30;;;15.60;57.80;;;;;;5060831;28;20224;-64
2023/01/19 05:05:18;;;;;;;0.40;0.30;;;15.60;57.80;;;;;;5060631;28;20106;-64
2023/01/19 05:07:44;;;;;;;0.50;0.40;;;15.50;57.70;;;;;;5060818;28;20256;-65
2023/01/19 05:10:10;;;;;;;0.38;0.32;;;15.50;57.70;;;;;;5060695;28;20040;-64
2023/01/19 05:12:36;;;;;;;0.30;0.30;;;15.40;57.80;;;;;;5060646;28;20033;-65
2023/01/19 05:15:03;;;;;;;0.50;0.50;;;15.40;57.90;;;;;;5060292;28;20161;-64
2023/01/19 05:17:29;;;;;;;0.22;0.22;;;15.30;57.90;;;;;;5060547;28;20051;-64
2023/01/19 05:19:55;;;;;;;0.30;0.30;;;15.30;58.00;;;;;;5060451;28;20028;-65
2023/01/19 05:22:21;;;;;;;0.47;0.20;;;15.30;58.10;;;;;;5060536;28;20016;-65
2023/01/19 05:24:47;;;;;;;0.38;0.30;;;15.20;58.20;;;;;;5060488;28;20080;-65
2023/01/19 05:27:12;;;;;;;0.55;0.50;;;15.20;58.20;;;;;;5060535;28;20095;-65
2023/01/19 05:29:38;;;;;;;0.30;0.30;;;15.20;58.20;;;;;;5060536;28;20052;-64
2023/01/19 05:32:05;;;;;;;0.35;0.35;;;15.10;58.20;;;;;;5060605;28;20028;-65
2023/01/19 05:34:30;;;;;;;0.40;0.40;;;15.10;58.20;;;;;;5060633;28;20351;-65
2023/01/19 05:36:56;;;;;;;0.30;0.30;;;15.10;58.30;;;;;;5060356;28;20021;-65
2023/01/19 05:39:22;;;;;;;0.50;0.38;;;15.00;58.20;;;;;;5060425;28;20084;-64
2023/01/19 05:41:48;;;;;;;0.22;0.22;;;15.10;58.40;;;;;;5060376;28;20021;-64
2023/01/19 05:44:14;;;;;;;0.40;0.40;;;15.00;58.30;;;;;;5060316;28;20021;-64
2023/01/19 05:46:40;;;;;;;0.40;0.38;;;15.00;58.40;;;;;;5060307;28;20043;-65
2023/01/19 05:49:06;;;;;;;0.40;0.40;;;15.00;58.40;;;;;;5060278;28;20025;-64
2023/01/19 05:51:44;;;;;;;0.35;0.35;;;15.00;58.40;;;;;;5060257;28;20080;-65
2023/01/19 05:54:13;;;;;;;0.57;0.50;;;15.10;58.50;;;;;;5060217;28;20025;-64
2023/01/19 05:56:39;;;;;;;0.32;0.32;;;15.20;58.60;;;;;;5060102;28;20025;-65
2023/01/19 05:59:05;;;;;;;0.20;0.20;;;15.20;58.50;;;;;;5060157;28;20031;-64
2023/01/19 06:01:32;;;;;;;0.35;0.30;;;15.30;58.40;;;;;;5060138;28;20048;-65
2023/01/19 06:03:57;;;;;;;0.40;0.32;;;15.40;58.30;;;;;;5060163;28;20033;-65
2023/01/19 06:06:23;;;;;;;0.50;0.50;;;15.50;58.10;;;;;;5059946;28;20052;-66
2023/01/19 06:08:49;;;;;;;0.40;0.40;;;15.60;58.00;;;;;;5060077;28;20045;-66
2023/01/19 06:11:15;;;;;;;0.52;0.52;;;15.60;57.90;;;;;;5060099;28;20028;-64
2023/01/19 06:13:41;;;;;;;0.32;0.32;;;15.60;57.80;;;;;;5060090;28;20035;-64
2023/01/19 06:16:07;;;;;;;0.30;0.30;;;15.70;57.80;;;;;;5060050;28;20056;-65
2023/01/19 06:18:33;;;;;;;0.30;0.30;;;15.60;57.70;;;;;;5060075;28;20096;-66
2023/01/19 06:21:05;;;;;;;0.40;0.40;;;15.60;57.60;;;;;;5060220;28;20020;-65
2023/01/19 06:23:33;;;;;;;0.40;0.40;;;15.50;57.70;;;;;;5060076;28;20228;-64
2023/01/19 06:25:59;;;;;;;0.45;0.40;;;15.50;57.80;;;;;;5061449;28;20087;-65
2023/01/19 06:28:25;;;;;;;0.40;0.40;;;15.40;57.80;;;;;;5063802;28;20040;-66
2023/01/19 06:30:52;;;;;;;0.22;0.22;;;15.40;58.00;;;;;;5063819;28;20056;-65
2023/01/19 06:33:19;;;;;;;0.40;0.40;;;15.30;58.00;;;;;;5063568;28;20039;-64
2023/01/19 06:35:49;;;;;;;0.40;0.40;;;15.30;58.10;;;;;;5063571;28;20028;-64
2023/01/19 06:38:17;;;;;;;0.45;0.38;;;15.30;58.10;;;;;;5063570;28;20079;-64
2023/01/19 06:40:44;;;;;;;0.38;0.38;;;15.20;58.10;;;;;;5063472;28;20033;-64
2023/01/19 06:43:10;;;;;;;0.32;0.32;;;15.20;58.10;;;;;;5063443;28;20025;-64
2023/01/19 06:45:38;;;;;;;0.40;0.40;;;15.20;58.10;;;;;;5063351;28;20099;-64
2023/01/19 06:48:04;;;;;;;0.40;0.40;;;15.10;58.20;;;;;;5063286;28;20029;-65
2023/01/19 06:50:31;;;;;;;0.40;0.38;;;15.10;58.20;;;;;;5063313;28;20040;-65
2023/01/19 06:52:56;;;;;;;0.30;0.30;;;15.10;58.30;;;;;;5063271;28;20047;-65
2023/01/19 06:55:22;;;;;;;0.30;0.30;;;15.10;58.20;;;;;;5063278;28;20037;-64
2023/01/19 06:57:56;;;;;;;0.77;0.55;;;15.10;58.20;;;;;;5063158;28;20033;-65
2023/01/19 07:00:23;;;;;;;0.40;0.40;;;15.10;58.40;;;;;;5063177;28;20111;-65
2023/01/19 07:02:49;;;;;;;0.40;0.40;;;15.10;58.30;;;;;;5063157;28;20024;-64
2023/01/19 07:05:15;;;;;;;0.55;0.55;;;15.00;58.40;;;;;;5062917;28;20115;-66
2023/01/19 07:07:44;;;;;;;1.60;0.30;;;15.10;58.40;;;;;;5063077;28;20068;-64
2023/01/19 07:10:11;;;;;;;0.43;0.43;;;15.10;58.50;;;;;;5063023;28;20029;-65
2023/01/19 07:12:38;;;;;;;0.40;0.40;;;15.20;58.50;;;;;;5062954;28;20352;-64
2023/01/19 07:15:05;;;;;;;0.30;0.30;;;15.30;58.40;;;;;;5062828;28;20082;-64
2023/01/19 07:17:31;;;;;;;0.60;0.55;;;15.40;58.30;;;;;;5062740;28;20337;-64
2023/01/19 07:19:57;;;;;;;0.65;0.45;;;15.40;58.00;;;;;;5062729;28;20335;-65
2023/01/19 07:22:22;;;;;;;0.20;0.20;;;15.50;57.80;;;;;;5062700;28;20025;-65
2023/01/19 07:24:48;;;;;;;0.30;0.30;;;15.50;57.80;;;;;;5062488;28;20055;-64
2023/01/19 07:27:15;;;;;;;0.50;0.50;;;15.50;57.70;;;;;;5062535;28;20091;-65
2023/01/19 07:29:41;;;;;;;0.47;0.47;;;15.60;57.60;;;;;;5062426;28;20229;-65
2023/01/19 07:32:07;;;;;;;0.55;0.55;;;15.60;57.50;;;;;;5062477;28;20025;-65
2023/01/19 07:34:33;;;;;;;0.60;0.40;;;15.60;57.50;;;;;;5062481;28;20040;-65
2023/01/19 07:36:59;;;;;;;0.55;0.50;;;15.50;57.40;;;;;;5062021;28;20013;-65
2023/01/19 07:39:25;;;;;;;1.10;0.65;;;15.40;57.40;;;;;;5062272;28;20031;-64
2023/01/19 07:41:51;;;;;;;0.80;0.70;;;15.40;57.50;;;;;;5062295;28;20021;-65
2023/01/19 07:44:17;;;;;;;0.50;0.40;;;15.40;57.70;;;;;;5062206;28;20078;-65
2023/01/19 07:46:43;;;;;;;0.60;0.60;;;15.30;57.80;;;;;;5062242;28;20439;-65
2023/01/19 07:49:09;;;;;;;1.00;0.73;;;15.30;57.80;;;;;;5062047;28;20021;-64
2023/01/19 07:51:35;;;;;;;0.40;0.40;;;15.20;57.80;;;;;;5062140;28;20031;-65
2023/01/19 07:54:00;;;;;;;0.80;0.55;;;15.20;58.00;;;;;;5062015;28;20053;-65
2023/01/19 07:56:29;;;;;;;0.65;0.57;;;15.20;57.90;;;;;;5062045;28;20028;-65
2023/01/19 07:58:55;;;;;;;0.73;0.70;;;15.20;58.10;;;;;;5061902;28;20028;-65
2023/01/19 08:01:22;;;;;;;0.38;0.38;;;15.20;58.20;;;;;;5062103;28;20498;-65
2023/01/19 08:03:48;;;;;;;0.82;0.70;;;15.20;58.10;;;;;;5061738;28;20025;-65
2023/01/19 08:06:23;;;;;;;0.30;0.30;;;15.20;58.20;;;;;;5076961;28;20044;-66
2023/01/19 08:08:49;;;;;;;0.55;0.55;;;15.20;58.20;;;;;;5061635;28;20229;-66
2023/01/19 08:11:16;;;;;;;0.63;0.63;;;15.20;58.20;;;;;;5061610;28;20088;-65
2023/01/19 08:13:42;;;;;;;0.57;0.50;;;15.20;58.10;;;;;;5061514;28;20381;-65
2023/01/19 08:16:08;;;;;;;0.50;0.50;;;15.20;58.20;;;;;;5061415;28;20027;-65
2023/01/19 08:18:34;;;;;;;0.50;0.50;;;15.10;58.20;;;;;;5061376;28;20065;-65
2023/01/19 08:21:00;;;;;;;0.50;0.47;;;15.10;58.20;;;;;;5061386;28;20013;-65
2023/01/19 08:23:29;;;;;;;0.52;0.52;;;15.10;58.30;;;;;;5061385;28;20023;-65
2023/01/19 08:25:55;;;;;;;0.50;0.50;;;15.10;58.30;;;;;;5061468;28;20028;-65
2023/01/19 08:28:21;;;;;;;0.57;0.57;;;15.10;58.30;;;;;;5061466;28;20059;-66
2023/01/19 08:30:52;;;;;;;0.60;0.40;;;15.10;58.30;;;;;;5061249;28;20029;-65
2023/01/19 08:33:19;;;;;;;0.50;0.40;;;15.10;58.30;;;;;;5060014;28;20098;-66
2023/01/19 08:35:48;;;;;;;0.40;0.40;;;15.20;58.50;;;;;;5076527;28;20035;-64
2023/01/19 08:38:15;;;;;;;0.75;0.50;;;15.30;58.40;;;;;;5060996;28;20076;-65
2023/01/19 08:40:41;;;;;;;0.65;0.65;;;15.30;58.30;;;;;;5060988;28;20055;-64
2023/01/19 08:43:13;;;;;;;0.50;0.50;;;15.40;58.10;;;;;;5060958;28;20057;-65
2023/01/19 08:45:45;;;;;;;0.88;0.50;;;15.50;58.00;;;;;;5059504;28;20017;-65
2023/01/19 08:48:12;;;;;;;0.60;0.52;;;15.60;57.80;;;;;;5060281;28;20036;-65
2023/01/19 08:50:38;;;;;;;0.50;0.50;;;15.60;57.60;;;;;;5060728;28;20329;-65
2023/01/19 08:53:08;;;;;;;0.50;0.50;;;15.60;57.60;;;;;;5060743;28;20312;-66
2023/01/19 08:55:35;;;;;;;0.80;0.60;;;15.60;57.50;;;;;;5060643;28;20032;-64
2023/01/19 08:58:05;;;;;;;0.65;0.32;;;15.70;57.40;;;;;;5060557;28;20055;-64
2023/01/19 09:00:33;;;;;;;0.40;0.40;;;15.70;57.30;;;;;;5060542;28;20119;-66
2023/01/19 09:03:01;;;;;;;0.40;0.40;;;15.60;57.30;;;;;;5060529;28;20127;-65
2023/01/19 09:05:27;;;;;;;;;;;15.60;57.40;;;;;;5060754;28;20045;-65
2023/01/19 09:07:53;;;;;;;0.80;0.63;;;15.50;57.50;;;;;;5060548;28;19912;-65
2023/01/19 09:10:19;;;;;;;1.25;0.73;;;15.40;57.60;;;;;;5051370;28;20029;-67
2023/01/19 09:12:45;;;;;;;0.60;0.60;;;15.40;57.60;;;;;;5054956;28;20206;-65
2023/01/19 09:15:12;;;;;;;0.70;0.50;;;15.40;57.80;;;;;;5060386;28;20028;-65
2023/01/19 09:17:42;;;;;;;4.55;0.70;;;15.30;57.70;;;;;;5045125;28;20037;-69
2023/01/19 09:20:08;;;;;;;4.50;1.10;;;15.30;57.90;;;;;;5056412;28;20090;-66
2023/01/19 09:22:34;;;;;;;3.40;1.00;;;15.30;58.10;;;;;;5058511;28;20029;-67
2023/01/19 09:25:00;;;;;;;8.57;2.03;;;15.40;57.80;;;;;;5050087;28;20091;-69
2023/01/19 09:27:26;;;;;;;2.40;0.85;;;15.50;57.60;;;;;;5040259;28;20278;-66
2023/01/19 09:29:52;;;;;;;2.42;0.93;;;15.60;57.40;;;;;;5042163;28;20033;-71
2023/01/19 09:32:20;;;;;;;5.13;1.20;;;15.80;57.20;;;;;;5059977;28;20021;-72
2023/01/19 09:34:46;;;;;;;2.58;0.82;;;15.80;57.00;;;;;;5059810;28;20040;-71
2023/01/19 09:37:14;;;;;;;12.00;0.88;;;16.00;56.80;;;;;;5053826;28;20043;-66
2023/01/19 09:39:39;;;;;;;2.63;0.60;;;16.10;56.70;;;;;;5058841;28;20025;-66
2023/01/19 09:42:25;;;;;;;4.32;0.75;;;16.10;56.70;;;;;;5060062;28;20291;-68
2023/01/19 09:44:53;;;;;;;8.13;0.90;;;16.10;56.50;;;;;;5059634;28;20220;-67
2023/01/19 09:47:26;;;;;;;6.43;1.13;;;16.20;56.60;;;;;;5056768;28;20062;-66
2023/01/19 09:50:01;;;;;;;9.95;1.48;;;16.20;56.40;;;;;;5055455;28;20029;-68
2023/01/19 09:52:30;;;;;;;24.30;2.67;;;16.30;56.30;;;;;;5059315;28;20056;-68
2023/01/19 09:54:57;;;;;;;4.53;0.65;;;16.40;56.10;;;;;;5058660;28;20029;-65
2023/01/19 09:57:26;;;;;;;7.40;0.75;;;16.40;56.10;;;;;;5059661;28;20336;-64
2023/01/19 09:59:56;;;;;;;3.33;1.75;;;16.40;56.10;;;;;;5059738;28;20025;-66
2023/01/19 10:03:00;;;;;;;3.33;0.70;;;16.40;56.10;;;;;;5061561;28;20027;-65
2023/01/19 10:05:35;;;;;;;3.67;0.70;;;16.40;56.10;;;;;;4997463;28;20451;-65
2023/01/19 10:08:39;;;;;;;1.83;0.80;;;16.50;56.10;;;;;;5044757;28;20049;-65
2023/01/19 10:11:29;;;;;;;3.22;0.80;;;16.50;56.00;;;;;;5054564;28;20079;-65
2023/01/19 10:13:57;;;;;;;1.23;0.68;;;16.50;55.90;;;;;;5063629;28;20029;-66
2023/01/19 10:16:52;;;;;;;2.45;1.13;;;16.60;55.80;;;;;;5062914;28;20032;-64
2023/01/19 10:19:35;;;;;;;2.63;1.15;;;16.60;55.80;;;;;;5048740;28;20061;-64
2023/01/19 10:22:09;;;;;;;0.82;0.60;;;16.60;55.80;;;;;;5061550;28;20075;-63
2023/01/19 10:24:39;;;;;;;0.65;0.65;;;16.60;55.80;;;;;;5062311;28;20025;-64
2023/01/19 10:27:16;;;;;;;2.15;0.60;;;16.60;55.90;;;;;;5062076;28;20031;-65
2023/01/19 10:29:43;;;;;;;0.77;0.60;;;16.60;55.80;;;;;;5062507;28;20025;-65
2023/01/19 10:32:11;;;;;;;1.08;0.75;;;16.60;55.90;;;;;;5061510;28;20042;-64
2023/01/19 10:34:37;;;;;;;1.55;0.50;;;16.70;55.90;;;;;;5062613;28;20021;-66
2023/01/19 10:37:51;;;;;;;2.50;0.77;;;16.70;56.50;;;;;;5062992;28;20055;-65
2023/01/19 10:40:27;;;;;;;3.88;0.90;;;16.70;55.80;;;;;;5053834;28;20033;-65
2023/01/19 10:42:55;;;;;;;1.30;0.90;;;16.70;55.80;;;;;;5060721;28;20028;-67
2023/01/19 10:45:24;;;;;;;5.27;1.00;;;16.60;55.60;;;;;;5061393;28;20059;-64
2023/01/19 10:47:53;;;;;;;4.43;1.20;;;16.70;55.70;;;;;;5044089;28;20036;-67
2023/01/19 10:50:28;;;;;;;1.60;1.00;;;16.70;55.60;;;;;;5060770;28;20036;-66
2023/01/19 10:52:59;;;;;;;2.33;0.80;;;16.70;55.90;;;;;;5051641;28;20088;-66
2023/01/19 10:55:31;;;;;;;2.00;0.93;;;16.70;55.90;;;;;;5044699;28;20341;-67
2023/01/19 10:57:58;;;;;;;2.95;1.25;;;16.70;55.80;;;;;;5042757;28;20359;-66
2023/01/19 11:00:41;;;;;;;2.20;1.50;;;16.70;56.00;;;;;;5062744;28;20090;-64
2023/01/19 11:03:33;;;;;;;1.50;1.17;;;16.70;56.10;;;;;;5062744;28;20020;-66
2023/01/19 11:06:14;;;;;;;3.20;1.13;;;16.70;56.00;;;;;;5040100;28;20095;-64
2023/01/19 11:08:44;;;;;;;2.85;1.25;;;16.70;56.00;;;;;;5042595;28;20029;-65
2023/01/19 11:11:11;;;;;;;2.25;1.33;;;16.80;56.00;;;;;;5050501;28;20039;-65
2023/01/19 11:13:41;;;;;;;2.03;1.20;;;16.80;55.80;;;;;;5062387;28;20052;-67
2023/01/19 11:16:22;;;;;;;2.88;1.30;;;16.80;55.90;;;;;;5053908;28;20221;-65
2023/01/19 11:18:51;;;;;;;3.13;1.52;;;16.80;55.80;;;;;;5044431;28;20025;-67
2023/01/19 11:21:23;;;;;;;3.25;1.63;;;16.80;55.60;;;;;;5044210;28;20018;-65
2023/01/19 11:23:57;;;;;;;4.70;1.52;;;16.80;55.70;;;;;;5042475;28;20021;-68
2023/01/19 11:27:01;;;;;;;2.88;1.15;;;16.80;55.80;;;;;;5042303;28;20060;-65
2023/01/19 11:29:28;;;;;;;1.23;1.10;;;16.80;55.70;;;;;;5047099;28;20033;-66
2023/01/19 11:32:07;;;;;;;1.67;1.20;;;16.80;55.80;;;;;;5060763;28;20039;-69
2023/01/19 11:34:37;;;;;;;2.05;0.82;;;16.80;55.70;;;;;;5060942;28;20301;-65
2023/01/19 11:37:16;;;;;;;1.00;0.90;;;16.80;55.80;;;;;;5060739;28;20024;-65
2023/01/19 11:39:50;;;;;;;2.05;1.08;;;16.80;55.80;;;;;;5060584;28;20025;-66
2023/01/19 11:42:17;;;;;;;3.00;1.23;;;16.80;56.00;;;;;;5060607;28;20029;-65
2023/01/19 11:45:11;;;;;;;2.17;1.15;;;16.80;56.00;;;;;;5060665;28;20100;-65
2023/01/19 11:47:45;;;;;;;3.25;1.00;;;16.80;56.00;;;;;;5061985;28;20029;-65
2023/01/19 11:50:20;;;;;;;2.58;0.90;;;16.80;56.00;;;;;;5061827;28;20044;-65
2023/01/19 11:53:24;;;;;;;5.20;1.15;;;16.80;56.00;;;;;;5061801;28;20029;-64
2023/01/19 11:56:02;;;;;;;3.42;0.90;;;16.80;56.00;;;;;;5061962;28;20070;-68
2023/01/19 11:58:30;;;;;;;5.88;1.13;;;16.80;55.80;;;;;;5061727;28;20036;-67
2023/01/19 12:00:56;;;;;;;3.47;1.08;;;16.90;56.10;;;;;;5061479;28;20028;-64
2023/01/19 12:03:37;;;;;;;1.25;0.57;;;16.80;55.90;;;;;;5061649;28;20031;-65
2023/01/19 12:06:08;;;;;;;3.40;1.00;;;16.90;56.10;;;;;;5076832;28;20218;-66
2023/01/19 12:08:43;;;;;;;2.08;0.80;;;16.80;56.30;;;;;;5061694;28;20096;-67
2023/01/19 12:11:16;;;;;;;5.95;1.05;;;16.90;56.10;;;;;;5061637;28;20037;-66
2023/01/19 12:13:44;;;;;;;3.90;1.10;;;16.90;55.90;;;;;;5061516;28;20032;-66
2023/01/19 12:16:19;;;;;;;2.30;1.42;;;16.90;55.80;;;;;;5061469;28;20025;-66
2023/01/19 12:18:51;;;;;;;2.90;1.52;;;16.90;55.90;;;;;;5061367;28;20028;-67
2023/01/19 12:21:18;;;;;;;4.93;1.17;;;17.00;55.80;;;;;;5061198;28;20020;-66
2023/01/19 12:24:03;;;;;;;4.80;1.75;;;16.90;55.70;;;;;;5060247;28;20027;-66
2023/01/19 12:26:41;;;;;;;2.55;1.67;;;17.00;55.70;;;;;;5061264;28;20045;-64
2023/01/19 12:29:18;;;;;;;8.82;2.00;;;17.00;55.60;;;;;;5060619;28;20033;-65
2023/01/19 12:31:44;;;;;;;5.00;1.50;;;17.00;55.60;;;;;;5061122;28;20021;-66
2023/01/19 12:34:30;;;;;;;2.58;1.30;;;17.00;55.60;;;;;;5060975;28;20212;-65
2023/01/19 12:37:02;;;;;;;4.45;1.60;;;16.90;55.80;;;;;;5059767;28;20032;-67
2023/01/19 12:39:28;;;;;;;5.82;2.30;;;17.00;55.80;;;;;;5060435;28;20025;-65
2023/01/19 12:42:16;;;;;;;3.83;1.50;;;17.00;56.00;;;;;;5060913;28;20028;-68
2023/01/19 12:44:46;;;;;;;8.82;2.53;;;17.00;53.60;;;;;;5061031;28;20025;-66
2023/01/19 12:47:15;;;;;;;9.57;2.40;;;16.80;55.80;;;;;;5060689;28;20051;-65
2023/01/19 12:49:47;;;;;;;11.95;2.25;;;16.80;56.30;;;;;;5060354;28;20083;-65
2023/01/19 12:52:39;;;;;;;8.55;2.67;;;16.90;56.40;;;;;;5060794;28;20021;-64
2023/01/19 12:55:45;;;;;;;7.03;1.67;;;17.00;56.50;;;;;;5061058;28;20029;-65
2023/01/19 12:58:22;;;;;;;11.68;2.00;;;17.00;56.20;;;;;;5059417;28;20037;-65
2023/01/19 13:01:08;;;;;;;6.93;2.83;;;17.00;56.00;;;;;;5060688;28;20347;-66
2023/01/19 13:04:08;;;;;;;9.65;2.50;;;16.80;49.90;;;;;;5060501;28;20029;-65
2023/01/19 13:06:49;;;;;;;7.00;2.20;;;16.60;55.90;;;;;;5045722;28;20050;-66
2023/01/19 13:09:30;;;;;;;16.98;2.25;;;16.80;56.10;;;;;;5040347;28;20021;-66
2023/01/19 13:12:18;;;;;;;7.47;2.30;;;16.90;55.90;;;;;;5040367;28;20210;-65
2023/01/19 13:14:44;;;;;;;5.85;2.13;;;17.00;55.80;;;;;;5040763;28;20072;-64
2023/01/19 13:17:43;;;;;;;4.72;2.08;;;17.10;55.60;;;;;;5054873;28;20029;-64
2023/01/19 13:20:41;;;;;;;7.20;2.80;;;17.10;55.30;;;;;;5040224;28;20428;-64